Time;durP1;ratioP1;P1;durP2;ratioP2;P2;SDS_P1;SDS_P2;PMS_P1;PMS_P2;Temp;Humidity;BMP_temperature;BMP_pressure;BME280_temperature;BME280_humidity;BME280_pressure;Samples;Min_cycle;Max_cycle;Signal;HPM_P1;HPM_P2
2023/04/13 00:00:55;;;;;;;1.65;0.52;;;11.50;59.80;;;;;;5031726;28;20037;-49
2023/04/13 00:03:23;;;;;;;4.07;0.55;;;11.50;60.00;;;;;;5026831;28;20044;-53
2023/04/13 00:05:52;;;;;;;0.90;0.45;;;11.50;60.30;;;;;;5028392;28;20053;-53
2023/04/13 00:08:21;;;;;;;1.90;0.95;;;11.50;60.80;;;;;;5043474;28;20057;-49
2023/04/13 00:10:49;;;;;;;1.20;0.50;;;11.50;61.00;;;;;;5049789;28;20627;-48
2023/04/13 00:13:17;;;;;;;1.65;0.43;;;11.50;61.10;;;;;;5036894;28;20038;-53
2023/04/13 00:15:47;;;;;;;0.85;0.40;;;11.40;61.50;;;;;;5045135;28;20044;-49
2023/04/13 00:18:22;;;;;;;0.68;0.50;;;11.40;61.60;;;;;;5037750;28;20405;-53
2023/04/13 00:20:49;;;;;;;0.80;0.50;;;11.30;62.00;;;;;;5062239;22;20461;-46
2023/04/13 00:23:24;;;;;;;2.28;0.40;;;11.30;61.90;;;;;;5049299;28;20294;-46
2023/04/13 00:25:57;;;;;;;1.23;0.50;;;11.20;62.30;;;;;;5040236;28;20052;-46
2023/04/13 00:28:28;;;;;;;2.53;0.70;;;11.20;62.40;;;;;;5046112;28;20055;-46
2023/04/13 00:30:55;;;;;;;3.47;0.70;;;11.10;62.70;;;;;;5024412;28;20038;-49
2023/04/13 00:33:23;;;;;;;0.70;0.50;;;11.10;62.80;;;;;;5019224;28;20038;-50
2023/04/13 00:35:50;;;;;;;2.25;0.40;;;11.00;63.30;;;;;;5031955;28;20033;-46
2023/04/13 00:38:19;;;;;;;1.98;0.93;;;11.00;63.30;;;;;;5026497;28;20046;-46
2023/04/13 00:40:49;;;;;;;2.38;0.73;;;11.00;63.40;;;;;;5026826;28;20049;-47
2023/04/13 00:43:24;;;;;;;1.15;0.73;;;11.00;63.50;;;;;;5002501;28;20116;-47
2023/04/13 00:45:53;;;;;;;1.67;0.60;;;11.00;63.40;;;;;;5021163;28;20049;-47
2023/04/13 00:48:22;;;;;;;1.15;0.47;;;11.00;63.40;;;;;;5008757;28;20140;-47
2023/04/13 00:50:48;;;;;;;2.45;0.60;;;11.00;63.30;;;;;;5029172;28;20044;-49
2023/04/13 00:53:18;;;;;;;2.45;0.40;;;11.00;63.50;;;;;;5017425;28;20050;-48
2023/04/13 00:55:47;;;;;;;2.22;0.65;;;11.00;63.40;;;;;;5029075;28;20063;-47
2023/04/13 00:58:14;;;;;;;2.28;0.70;;;11.00;63.40;;;;;;5031199;28;20405;-46
2023/04/13 01:00:41;;;;;;;2.50;0.77;;;11.00;63.10;;;;;;5014383;28;20077;-47
2023/04/13 01:03:10;;;;;;;0.45;0.43;;;11.10;63.10;;;;;;5016119;28;20517;-47
2023/04/13 01:06:04;;;;;;;1.98;0.52;;;11.10;62.90;;;;;;5012575;28;20516;-49
2023/04/13 01:08:35;;;;;;;0.68;0.40;;;11.10;62.90;;;;;;5029402;28;20045;-49
2023/04/13 01:11:15;;;;;;;1.80;0.60;;;11.10;62.80;;;;;;5023292;28;20044;-48
2023/04/13 01:13:57;;;;;;;2.47;0.50;;;11.10;62.70;;;;;;5010006;28;20092;-48
2023/04/13 01:16:39;;;;;;;1.05;0.50;;;11.20;62.60;;;;;;5014328;28;20125;-46
2023/04/13 01:19:40;;;;;;;1.92;0.93;;;11.20;62.40;;;;;;5030143;28;20045;-49
2023/04/13 01:22:09;;;;;;;1.55;0.38;;;11.20;62.60;;;;;;5024273;28;20107;-47
2023/04/13 01:24:52;;;;;;;0.70;0.45;;;11.20;62.30;;;;;;5014066;28;20085;-48
2023/04/13 01:27:45;;;;;;;2.08;0.68;;;11.20;62.30;;;;;;5031479;28;20042;-47
2023/04/13 01:30:17;;;;;;;0.47;0.47;;;11.20;62.30;;;;;;5026549;28;20045;-50
2023/04/13 01:32:48;;;;;;;2.10;0.50;;;11.20;62.20;;;;;;5026156;28;20160;-49
2023/04/13 01:35:17;;;;;;;1.95;0.60;;;11.20;62.50;;;;;;5024308;28;20033;-47
2023/04/13 01:37:45;;;;;;;1.08;0.77;;;11.20;62.40;;;;;;5011970;28;20473;-48
2023/04/13 01:40:15;;;;;;;2.60;0.88;;;11.10;62.30;;;;;;5012685;28;20076;-47
2023/04/13 01:42:48;;;;;;;1.15;0.60;;;11.20;62.60;;;;;;5009945;28;20053;-46
2023/04/13 01:45:19;;;;;;;2.33;0.60;;;11.20;62.50;;;;;;5026094;28;20549;-46
2023/04/13 01:48:01;;;;;;;1.00;0.50;;;11.20;62.50;;;;;;5012376;28;20072;-46
2023/04/13 01:50:56;;;;;;;1.52;0.60;;;11.20;62.90;;;;;;5028800;28;20051;-48
2023/04/13 01:53:45;;;;;;;0.98;0.40;;;11.10;62.70;;;;;;5007112;28;20045;-48
2023/04/13 01:56:18;;;;;;;3.60;1.20;;;11.20;62.60;;;;;;5017721;28;20084;-50
2023/04/13 01:58:48;;;;;;;;;;;11.20;62.60;;;;;;5012625;28;20655;-49
2023/04/13 02:01:16;;;;;;;4.03;1.30;;;11.20;62.50;;;;;;5008548;28;19927;-50
2023/04/13 02:03:47;;;;;;;1.52;0.45;;;11.20;62.30;;;;;;5021696;28;20262;-49
2023/04/13 02:06:14;;;;;;;4.15;1.30;;;11.20;62.50;;;;;;5011652;28;20042;-49
2023/04/13 02:08:44;;;;;;;1.63;0.65;;;11.20;62.60;;;;;;5011016;28;20052;-50
2023/04/13 02:11:14;;;;;;;3.33;0.60;;;11.20;62.50;;;;;;5010666;28;20612;-51
2023/04/13 02:13:42;;;;;;;2.97;1.17;;;11.20;62.60;;;;;;5006881;28;20056;-48
2023/04/13 02:16:14;;;;;;;0.98;0.70;;;11.20;62.60;;;;;;5011310;28;20034;-50
2023/04/13 02:18:43;;;;;;;2.92;0.70;;;11.20;62.80;;;;;;5012098;28;20745;-49
2023/04/13 02:21:13;;;;;;;1.73;0.50;;;11.20;62.80;;;;;;5008008;28;20033;-49
2023/04/13 02:23:48;;;;;;;2.83;1.10;;;11.20;63.10;;;;;;5019641;28;20125;-50
2023/04/13 02:26:23;;;;;;;4.30;0.90;;;11.20;63.00;;;;;;5011958;28;20045;-50
2023/04/13 02:28:52;;;;;;;3.08;0.65;;;11.10;63.00;;;;;;5010418;28;20050;-52
2023/04/13 02:31:23;;;;;;;2.53;1.05;;;11.20;63.10;;;;;;5025740;28;20544;-46
2023/04/13 02:33:50;;;;;;;1.83;0.60;;;11.20;63.00;;;;;;5026523;28;20154;-47
2023/04/13 02:36:20;;;;;;;2.10;1.08;;;11.10;63.20;;;;;;5030566;28;20099;-50
2023/04/13 02:38:53;;;;;;;2.50;1.08;;;11.10;63.10;;;;;;5028536;28;20123;-50
2023/04/13 02:41:28;;;;;;;3.15;0.60;;;11.10;63.20;;;;;;5025040;28;20232;-51
2023/04/13 02:43:56;;;;;;;1.23;0.63;;;11.10;63.10;;;;;;5026987;28;20077;-50
2023/04/13 02:46:26;;;;;;;2.45;0.88;;;11.10;63.20;;;;;;5029120;28;20132;-50
2023/04/13 02:49:01;;;;;;;4.13;0.73;;;11.10;63.30;;;;;;5009736;28;20049;-46
2023/04/13 02:51:36;;;;;;;;;;;11.10;63.40;;;;;;5010136;28;20509;-53
2023/04/13 02:54:03;;;;;;;1.40;0.70;;;11.10;63.50;;;;;;5011578;28;19925;-52
2023/04/13 02:56:35;;;;;;;1.98;0.68;;;11.10;63.10;;;;;;5011430;28;20040;-50
2023/04/13 02:59:02;;;;;;;3.95;0.80;;;11.10;63.20;;;;;;5023668;28;20045;-50
2023/04/13 03:01:30;;;;;;;1.40;0.50;;;11.10;63.40;;;;;;5027559;28;20038;-50
2023/04/13 03:04:01;;;;;;;0.95;0.60;;;11.00;63.50;;;;;;5008220;28;20042;-50
2023/04/13 03:06:30;;;;;;;2.20;0.68;;;10.90;63.60;;;;;;5028458;28;20099;-47
2023/04/13 03:09:00;;;;;;;2.78;0.50;;;11.00;63.80;;;;;;5011506;28;20129;-50
2023/04/13 03:11:35;;;;;;;2.70;0.70;;;11.00;63.90;;;;;;5007416;28;20568;-52
2023/04/13 03:14:19;;;;;;;2.00;0.80;;;10.90;64.00;;;;;;5020932;28;20041;-50
2023/04/13 03:16:48;;;;;;;0.88;0.50;;;10.90;64.00;;;;;;5011129;28;20409;-49
2023/04/13 03:19:16;;;;;;;2.20;0.80;;;10.90;64.20;;;;;;5009003;28;20054;-52
2023/04/13 03:21:45;;;;;;;2.60;0.93;;;10.90;64.30;;;;;;5030976;28;20069;-51
2023/04/13 03:24:16;;;;;;;1.13;0.43;;;10.90;64.50;;;;;;5032801;28;20132;-52
2023/04/13 03:26:43;;;;;;;2.30;0.80;;;10.90;64.80;;;;;;5013123;28;20053;-48
2023/04/13 03:29:16;;;;;;;1.10;0.93;;;10.90;65.10;;;;;;5014996;28;20033;-51
2023/04/13 03:31:45;;;;;;;1.92;0.75;;;10.90;65.20;;;;;;5014663;28;20042;-48
2023/04/13 03:34:15;;;;;;;3.08;0.93;;;10.80;65.30;;;;;;5011665;28;20454;-52
2023/04/13 03:36:44;;;;;;;2.22;0.60;;;10.80;65.60;;;;;;5015540;28;20080;-50
2023/04/13 03:39:14;;;;;;;1.67;0.60;;;10.80;66.00;;;;;;5015615;28;20042;-52
2023/04/13 03:41:42;;;;;;;2.17;0.80;;;10.70;66.10;;;;;;5012489;28;20042;-51
2023/04/13 03:44:13;;;;;;;2.83;0.93;;;10.70;66.20;;;;;;5023111;28;20129;-50
2023/04/13 03:46:40;;;;;;;1.95;0.88;;;10.70;66.40;;;;;;5014084;28;20115;-50
2023/04/13 03:49:19;;;;;;;1.88;0.57;;;10.60;66.60;;;;;;5004757;28;20037;-51
2023/04/13 03:51:46;;;;;;;3.03;0.68;;;10.60;66.60;;;;;;5030191;28;20470;-52
2023/04/13 03:54:14;;;;;;;1.20;0.50;;;10.60;66.60;;;;;;5014722;28;20069;-51
2023/04/13 03:56:40;;;;;;;2.08;0.55;;;10.60;67.00;;;;;;5030824;28;20065;-50
2023/04/13 03:59:08;;;;;;;3.10;0.90;;;10.60;67.10;;;;;;5025838;28;20497;-53
2023/04/13 04:01:37;;;;;;;2.00;1.13;;;10.50;67.10;;;;;;5013598;28;20041;-52
2023/04/13 04:04:04;;;;;;;3.88;1.05;;;10.60;67.20;;;;;;5025762;28;20050;-50
2023/04/13 04:06:34;;;;;;;3.35;0.90;;;10.60;67.30;;;;;;5014267;28;20096;-48
2023/04/13 04:09:09;;;;;;;1.23;0.70;;;10.60;67.50;;;;;;5014507;28;20045;-51
2023/04/13 04:11:40;;;;;;;4.35;1.27;;;10.60;67.40;;;;;;5012517;28;20053;-51
2023/04/13 04:14:09;;;;;;;2.38;0.80;;;10.60;67.60;;;;;;5024662;28;20068;-51
2023/04/13 04:16:39;;;;;;;1.05;0.70;;;10.50;67.60;;;;;;5014438;28;20835;-49
2023/04/13 04:19:14;;;;;;;2.80;1.05;;;10.60;67.60;;;;;;5006551;28;20042;-51
2023/04/13 04:21:44;;;;;;;2.10;1.00;;;10.60;67.60;;;;;;5010457;28;20041;-52
2023/04/13 04:24:22;;;;;;;4.40;1.13;;;10.60;67.50;;;;;;5022780;28;20037;-47
2023/04/13 04:26:54;;;;;;;2.90;1.27;;;10.60;67.40;;;;;;5014177;28;20053;-50
2023/04/13 04:29:35;;;;;;;4.85;1.23;;;10.60;67.40;;;;;;5023581;28;20096;-50
2023/04/13 04:32:24;;;;;;;2.30;1.25;;;10.70;67.60;;;;;;5030835;28;20038;-51
2023/04/13 04:34:53;;;;;;;1.92;1.02;;;10.70;67.40;;;;;;5029945;28;20103;-50
2023/04/13 04:37:22;;;;;;;1.52;0.80;;;10.70;67.30;;;;;;5012690;28;20072;-49
2023/04/13 04:39:59;;;;;;;1.63;0.63;;;10.80;67.20;;;;;;5019685;28;20081;-50
2023/04/13 04:42:28;;;;;;;3.72;1.00;;;10.70;67.00;;;;;;5028681;28;20087;-50
2023/04/13 04:44:57;;;;;;;1.60;0.75;;;10.80;67.00;;;;;;5024395;28;20072;-52
2023/04/13 04:47:29;;;;;;;1.58;0.57;;;10.80;67.00;;;;;;5013794;28;20087;-49
2023/04/13 04:50:18;;;;;;;1.90;0.50;;;10.80;67.00;;;;;;5008296;28;20665;-51
2023/04/13 04:52:50;;;;;;;2.15;0.77;;;10.80;66.80;;;;;;5029256;28;20046;-49
2023/04/13 04:55:20;;;;;;;1.33;0.63;;;10.80;66.60;;;;;;5019467;28;20048;-48
2023/04/13 04:57:48;;;;;;;1.63;0.80;;;10.80;66.60;;;;;;5018132;28;20046;-50
2023/04/13 05:00:17;;;;;;;2.15;0.60;;;10.90;66.70;;;;;;5026923;28;20053;-48
2023/04/13 05:03:06;;;;;;;4.45;0.82;;;10.80;66.50;;;;;;5024433;28;20065;-48
2023/04/13 05:05:36;;;;;;;1.80;0.85;;;10.90;66.60;;;;;;5026382;28;20061;-50
2023/04/13 05:08:08;;;;;;;2.00;0.80;;;10.90;66.40;;;;;;5012905;28;20053;-49
2023/04/13 05:10:44;;;;;;;2.28;0.90;;;10.90;66.50;;;;;;5013027;28;20517;-50
2023/04/13 05:13:11;;;;;;;3.70;1.05;;;10.90;66.40;;;;;;5026262;28;20034;-49
2023/04/13 05:15:41;;;;;;;2.40;0.98;;;10.90;66.20;;;;;;5010743;28;20045;-50
2023/04/13 05:18:11;;;;;;;3.90;1.25;;;10.90;66.20;;;;;;5012284;28;20440;-50
2023/04/13 05:20:39;;;;;;;1.77;1.02;;;10.90;66.20;;;;;;5013797;28;20045;-51
2023/04/13 05:23:07;;;;;;;1.83;1.08;;;10.90;66.10;;;;;;5011989;28;20156;-51
2023/04/13 05:25:39;;;;;;;2.70;1.38;;;10.90;66.10;;;;;;5007387;28;20069;-47
2023/04/13 05:28:14;;;;;;;2.53;0.93;;;10.90;66.00;;;;;;5028525;28;20045;-52
2023/04/13 05:30:41;;;;;;;3.42;0.93;;;10.90;66.00;;;;;;5011982;28;20049;-52
2023/04/13 05:33:09;;;;;;;1.63;0.90;;;10.90;66.00;;;;;;5009296;28;20048;-49
2023/04/13 05:35:38;;;;;;;3.20;1.27;;;10.90;66.00;;;;;;5021265;28;20137;-50
2023/04/13 05:38:06;;;;;;;1.65;0.88;;;10.90;66.00;;;;;;5027213;28;20091;-52
2023/04/13 05:40:36;;;;;;;2.88;1.45;;;10.90;66.00;;;;;;5011890;28;20429;-50
2023/04/13 05:43:03;;;;;;;1.95;0.90;;;10.90;65.80;;;;;;5003922;28;20791;-50
2023/04/13 05:45:34;;;;;;;1.20;0.85;;;10.90;65.70;;;;;;5012223;28;20076;-48
2023/04/13 05:48:05;;;;;;;2.22;0.85;;;10.90;65.70;;;;;;5027976;28;20045;-50
2023/04/13 05:50:32;;;;;;;1.30;0.68;;;10.90;65.70;;;;;;5027587;28;20121;-50
2023/04/13 05:53:00;;;;;;;1.25;0.80;;;10.90;65.70;;;;;;5024308;28;20042;-47
2023/04/13 05:55:33;;;;;;;0.80;0.80;;;10.90;65.70;;;;;;5028240;28;20056;-50
2023/04/13 05:58:03;;;;;;;1.27;0.55;;;10.80;65.60;;;;;;5011582;28;20045;-49
2023/04/13 06:00:31;;;;;;;2.17;0.65;;;10.80;65.70;;;;;;5009633;28;20060;-47
2023/04/13 06:03:03;;;;;;;1.35;0.63;;;10.80;66.00;;;;;;5010679;28;20050;-47
2023/04/13 06:05:33;;;;;;;1.48;0.50;;;10.80;65.80;;;;;;5019693;28;20429;-51
2023/04/13 06:08:00;;;;;;;0.98;0.50;;;10.80;66.20;;;;;;5028452;28;20091;-49
2023/04/13 06:10:26;;;;;;;1.60;0.35;;;10.80;65.80;;;;;;5027070;28;20061;-49
2023/04/13 06:12:53;;;;;;;1.58;0.65;;;10.80;65.80;;;;;;5015462;28;20041;-50
2023/04/13 06:15:20;;;;;;;3.20;1.13;;;10.80;65.90;;;;;;5029575;28;20037;-48
2023/04/13 06:17:51;;;;;;;1.38;0.75;;;10.80;66.00;;;;;;5028631;28;20111;-48
2023/04/13 06:20:19;;;;;;;1.95;0.70;;;10.80;66.20;;;;;;5001597;28;20054;-53
2023/04/13 06:22:46;;;;;;;1.02;0.57;;;10.80;66.10;;;;;;5028698;28;20059;-49
2023/04/13 06:25:15;;;;;;;1.58;0.70;;;10.80;66.00;;;;;;5011218;28;20056;-51
2023/04/13 06:27:48;;;;;;;2.17;0.63;;;10.80;66.20;;;;;;5026092;28;20042;-51
2023/04/13 06:30:19;;;;;;;2.35;0.77;;;10.80;66.40;;;;;;5020102;28;20080;-51
2023/04/13 06:32:49;;;;;;;1.77;1.08;;;10.90;66.50;;;;;;5009609;28;20038;-50
2023/04/13 06:35:19;;;;;;;1.15;0.60;;;10.90;66.50;;;;;;5021429;28;20393;-51
2023/04/13 06:37:50;;;;;;;1.63;0.90;;;11.00;66.40;;;;;;5011453;28;20041;-50
2023/04/13 06:40:26;;;;;;;2.33;0.50;;;11.00;66.40;;;;;;5004925;28;20437;-50
2023/04/13 06:43:00;;;;;;;2.00;0.70;;;11.00;66.20;;;;;;5012952;28;20048;-51
2023/04/13 06:45:42;;;;;;;1.10;0.80;;;11.10;66.20;;;;;;5011094;28;20570;-49
2023/04/13 06:48:16;;;;;;;4.78;0.68;;;11.20;66.10;;;;;;5029477;28;20132;-51
2023/04/13 06:50:45;;;;;;;1.88;0.80;;;11.20;66.20;;;;;;5032232;28;20501;-50
2023/04/13 06:53:11;;;;;;;1.95;0.65;;;11.30;66.10;;;;;;5008070;28;20046;-52
2023/04/13 06:55:40;;;;;;;2.22;0.60;;;11.30;65.90;;;;;;5027815;28;20045;-52
2023/04/13 06:58:08;;;;;;;2.85;0.90;;;11.40;65.80;;;;;;5011913;28;20096;-51
2023/04/13 07:00:37;;;;;;;3.70;1.25;;;11.50;65.80;;;;;;5025312;28;20041;-49
2023/04/13 07:03:06;;;;;;;2.03;0.93;;;11.50;65.60;;;;;;5023718;28;20127;-51
2023/04/13 07:05:35;;;;;;;1.15;1.00;;;11.60;65.40;;;;;;5010614;28;20132;-51
2023/04/13 07:08:08;;;;;;;2.28;0.60;;;11.70;65.20;;;;;;5012179;28;20123;-50
2023/04/13 07:10:38;;;;;;;3.70;1.02;;;11.70;65.00;;;;;;5027727;28;20057;-49
2023/04/13 07:13:09;;;;;;;4.88;1.05;;;11.70;64.90;;;;;;5007053;28;20046;-49
2023/04/13 07:15:36;;;;;;;5.75;1.27;;;11.80;64.60;;;;;;5012224;28;20051;-51
2023/04/13 07:18:03;;;;;;;1.70;1.25;;;11.80;64.60;;;;;;5022769;28;20048;-51
2023/04/13 07:20:32;;;;;;;3.17;1.63;;;11.80;64.70;;;;;;5008798;28;20057;-48
2023/04/13 07:22:58;;;;;;;3.30;1.17;;;11.80;64.60;;;;;;5006806;28;20528;-49
2023/04/13 07:25:25;;;;;;;3.53;1.35;;;11.90;64.60;;;;;;5028626;28;20072;-48
2023/04/13 07:27:52;;;;;;;2.45;1.13;;;11.90;64.50;;;;;;5041746;23;20042;-52
2023/04/13 07:30:20;;;;;;;4.53;1.83;;;12.00;64.50;;;;;;5026629;28;20040;-49
2023/04/13 07:32:50;;;;;;;4.07;1.30;;;12.00;64.50;;;;;;5025310;28;20452;-51
2023/04/13 07:35:19;;;;;;;3.85;1.38;;;12.10;64.50;;;;;;5010327;28;20037;-50
2023/04/13 07:37:48;;;;;;;3.67;1.40;;;12.20;64.20;;;;;;5023619;28;20437;-52
2023/04/13 07:40:18;;;;;;;3.20;1.30;;;12.20;63.90;;;;;;5022259;28;20427;-50
2023/04/13 07:42:49;;;;;;;1.83;1.30;;;12.20;63.60;;;;;;5006279;28;20528;-52
2023/04/13 07:45:16;;;;;;;3.28;1.38;;;12.30;63.50;;;;;;5026641;28;20508;-48
2023/04/13 07:47:44;;;;;;;3.95;1.52;;;12.30;63.40;;;;;;5008453;28;20145;-51
2023/04/13 07:50:12;;;;;;;5.22;1.40;;;12.30;63.70;;;;;;5027489;28;20132;-54
2023/04/13 07:52:38;;;;;;;2.83;1.30;;;12.40;63.60;;;;;;5010923;28;20051;-50
2023/04/13 07:55:07;;;;;;;4.55;1.35;;;12.40;63.40;;;;;;5024477;28;20104;-46
2023/04/13 07:57:43;;;;;;;4.32;1.38;;;12.50;63.40;;;;;;5042042;28;20501;-50
2023/04/13 08:00:17;;;;;;;4.25;1.48;;;12.50;63.30;;;;;;5036603;28;20079;-50
2023/04/13 08:02:46;;;;;;;4.13;1.67;;;12.50;63.20;;;;;;5036791;28;20971;-46
2023/04/13 08:05:18;;;;;;;5.00;1.80;;;12.50;63.10;;;;;;5040598;28;20069;-48
2023/04/13 08:07:47;;;;;;;5.38;1.95;;;12.60;63.00;;;;;;5029643;28;20044;-51
2023/04/13 08:10:15;;;;;;;3.90;1.20;;;12.60;63.00;;;;;;5029989;28;20540;-49
2023/04/13 08:12:42;;;;;;;4.07;1.50;;;12.60;62.80;;;;;;5036104;28;20033;-49
2023/04/13 08:15:09;;;;;;;2.65;1.33;;;12.70;62.60;;;;;;5043656;28;20068;-52
2023/04/13 08:17:36;;;;;;;4.63;1.52;;;12.70;62.50;;;;;;5024155;28;20049;-48
2023/04/13 08:20:06;;;;;;;6.00;1.63;;;12.70;62.50;;;;;;5029780;28;20041;-47
2023/04/13 08:22:35;;;;;;;3.92;1.63;;;12.80;62.40;;;;;;5037541;28;20860;-52
2023/04/13 08:25:06;;;;;;;5.93;2.42;;;12.80;62.20;;;;;;5043752;28;20083;-52
2023/04/13 08:27:33;;;;;;;6.35;1.60;;;12.80;61.90;;;;;;5021508;28;20099;-50
2023/04/13 08:30:01;;;;;;;5.65;2.63;;;12.90;62.00;;;;;;5029364;28;20037;-52
2023/04/13 08:32:36;;;;;;;3.95;1.83;;;12.90;62.00;;;;;;5034383;28;20105;-49
2023/04/13 08:35:06;;;;;;;4.65;1.75;;;13.00;61.70;;;;;;5034388;28;20390;-52
2023/04/13 08:37:33;;;;;;;8.75;1.92;;;13.10;61.60;;;;;;5047493;28;20036;-51
2023/04/13 08:40:01;;;;;;;6.82;1.85;;;13.20;61.60;;;;;;5010264;28;20421;-50
2023/04/13 08:42:30;;;;;;;5.32;1.80;;;13.20;61.20;;;;;;5002241;28;20072;-47
2023/04/13 08:44:59;;;;;;;5.95;1.83;;;13.30;61.30;;;;;;5026457;28;20046;-50
2023/04/13 08:47:27;;;;;;;4.88;1.70;;;13.40;60.90;;;;;;5003282;28;20088;-50
2023/04/13 08:49:59;;;;;;;2.78;1.45;;;13.40;60.40;;;;;;5009983;28;20379;-48
2023/04/13 08:52:38;;;;;;;3.83;1.85;;;13.50;60.20;;;;;;5012396;28;20054;-47
2023/04/13 08:55:05;;;;;;;6.78;1.58;;;13.50;60.30;;;;;;5010878;28;20050;-51
2023/04/13 08:57:35;;;;;;;5.15;2.13;;;13.50;60.00;;;;;;5010473;28;20096;-47
2023/04/13 09:00:10;;;;;;;5.07;1.80;;;13.60;59.80;;;;;;5032363;28;20043;-47
2023/04/13 09:02:38;;;;;;;3.50;1.95;;;13.60;59.60;;;;;;5028441;28;20114;-50
2023/04/13 09:05:27;;;;;;;6.03;1.73;;;13.60;59.70;;;;;;5043734;28;20029;-52
2023/04/13 09:08:03;;;;;;;5.97;2.20;;;13.60;59.70;;;;;;5033539;28;20528;-51
2023/04/13 09:10:35;;;;;;;6.03;1.80;;;13.60;59.60;;;;;;5010490;28;20038;-51
2023/04/13 09:13:02;;;;;;;7.35;2.03;;;13.70;59.80;;;;;;5027787;28;20096;-51
2023/04/13 09:15:30;;;;;;;6.15;2.60;;;13.70;59.80;;;;;;5021501;28;20080;-50
2023/04/13 09:18:11;;;;;;;4.47;2.20;;;13.80;59.60;;;;;;5013545;28;20440;-49
2023/04/13 09:21:00;;;;;;;7.13;1.70;;;13.80;59.70;;;;;;5036802;28;20513;-52
2023/04/13 09:23:27;;;;;;;8.13;2.10;;;13.90;59.20;;;;;;5030370;28;20048;-47
2023/04/13 09:26:09;;;;;;;10.13;2.72;;;14.00;59.40;;;;;;5029150;28;20049;-49
2023/04/13 09:28:50;;;;;;;4.80;2.28;;;14.00;58.80;;;;;;5026346;28;20053;-48
2023/04/13 09:31:17;;;;;;;8.18;2.65;;;14.10;58.80;;;;;;5038929;28;20044;-51
2023/04/13 09:33:47;;;;;;;6.55;3.35;;;14.10;59.00;;;;;;5034325;28;20042;-49
2023/04/13 09:36:16;;;;;;;5.68;1.92;;;14.20;58.40;;;;;;5039075;28;20049;-52
2023/04/13 09:38:45;;;;;;;8.30;2.45;;;14.20;57.90;;;;;;5041515;28;20037;-47
2023/04/13 09:41:12;;;;;;;6.10;1.77;;;14.20;57.40;;;;;;5021846;28;20045;-53
2023/04/13 09:43:39;;;;;;;4.85;1.80;;;14.10;57.10;;;;;;5036949;28;20048;-48
2023/04/13 09:46:12;;;;;;;7.45;1.92;;;14.10;57.00;;;;;;5031042;28;20053;-48
2023/04/13 09:48:41;;;;;;;9.45;1.92;;;14.00;56.60;;;;;;5031117;28;20120;-49
2023/04/13 09:51:09;;;;;;;4.45;1.92;;;13.90;57.20;;;;;;5026297;28;20049;-47
2023/04/13 09:53:47;;;;;;;4.57;1.70;;;13.90;57.30;;;;;;5032892;28;20489;-49
2023/04/13 09:56:15;;;;;;;6.22;2.03;;;13.90;56.90;;;;;;5029980;28;20060;-51
2023/04/13 09:58:44;;;;;;;7.57;2.10;;;13.90;57.50;;;;;;5010641;28;20141;-50
2023/04/13 10:01:14;;;;;;;6.65;2.00;;;13.90;57.80;;;;;;5030337;28;20379;-52
2023/04/13 10:03:42;;;;;;;6.63;2.35;;;13.90;58.00;;;;;;5026452;28;20049;-49
2023/04/13 10:06:09;;;;;;;4.20;2.05;;;14.00;57.40;;;;;;5029701;28;20573;-49
2023/04/13 10:08:40;;;;;;;5.88;1.83;;;14.10;57.30;;;;;;5029123;28;20053;-52
2023/04/13 10:11:11;;;;;;;5.95;1.88;;;14.10;57.10;;;;;;5028996;28;20038;-50
2023/04/13 10:13:50;;;;;;;4.72;1.85;;;14.20;57.60;;;;;;5025054;28;20033;-50
2023/04/13 10:16:41;;;;;;;7.55;2.00;;;14.30;57.90;;;;;;5029456;28;20041;-51
2023/04/13 10:19:20;;;;;;;4.57;1.98;;;14.40;57.40;;;;;;5009852;28;20460;-52
2023/04/13 10:21:50;;;;;;;3.30;1.45;;;14.60;56.20;;;;;;5028939;28;20049;-50
2023/04/13 10:24:19;;;;;;;3.93;1.80;;;14.70;56.50;;;;;;5034056;28;20045;-49
2023/04/13 10:26:46;;;;;;;3.35;1.50;;;14.70;56.60;;;;;;5036885;28;20569;-52
2023/04/13 10:29:15;;;;;;;3.30;1.85;;;14.80;56.00;;;;;;5034473;28;20049;-49
2023/04/13 10:31:46;;;;;;;4.05;1.50;;;14.80;55.90;;;;;;5036678;28;20048;-52
2023/04/13 10:34:25;;;;;;;2.23;1.30;;;14.80;55.10;;;;;;5025685;28;20045;-51
2023/04/13 10:36:54;;;;;;;5.25;1.38;;;14.80;55.20;;;;;;5027914;28;20045;-52
2023/04/13 10:39:26;;;;;;;4.15;1.40;;;14.90;55.70;;;;;;5024334;28;20041;-48
2023/04/13 10:42:07;;;;;;;5.05;1.85;;;14.90;55.30;;;;;;5039593;28;20045;-52
2023/04/13 10:44:47;;;;;;;4.78;1.85;;;14.90;54.90;;;;;;5036651;28;20047;-52
2023/04/13 10:47:16;;;;;;;4.65;1.88;;;15.00;54.70;;;;;;5038176;28;20148;-52
2023/04/13 10:49:47;;;;;;;4.80;1.50;;;15.00;55.00;;;;;;5035846;28;20456;-49
2023/04/13 10:52:15;;;;;;;6.88;1.70;;;15.10;54.60;;;;;;5032898;28;20148;-47
2023/04/13 10:54:42;;;;;;;6.63;2.03;;;15.20;54.40;;;;;;5024486;28;20544;-50
2023/04/13 10:57:10;;;;;;;5.00;1.60;;;15.20;54.20;;;;;;5033632;28;20037;-46
2023/04/13 10:59:51;;;;;;;5.93;1.38;;;15.30;54.10;;;;;;5033782;28;20050;-50
2023/04/13 11:02:30;;;;;;;3.78;1.73;;;15.30;53.40;;;;;;5015063;28;20091;-48
2023/04/13 11:04:57;;;;;;;;;;;15.30;53.50;;;;;;5028125;28;20041;-52
2023/04/13 11:07:25;;;;;;;5.28;2.17;;;15.40;53.80;;;;;;5029609;28;19921;-49
2023/04/13 11:09:59;;;;;;;4.15;1.67;;;15.40;53.60;;;;;;5027683;28;20055;-49
2023/04/13 11:12:28;;;;;;;5.00;1.95;;;15.50;53.50;;;;;;5027896;28;20061;-50
2023/04/13 11:14:55;;;;;;;2.55;1.00;;;15.50;53.50;;;;;;5012715;28;20037;-52
2023/04/13 11:17:24;;;;;;;5.47;1.58;;;15.50;53.60;;;;;;5031752;28;20052;-51
2023/04/13 11:19:54;;;;;;;3.80;1.40;;;15.50;53.30;;;;;;5034960;28;20029;-48
2023/04/13 11:22:23;;;;;;;5.55;1.63;;;15.60;53.00;;;;;;5032606;28;20098;-50
2023/04/13 11:24:50;;;;;;;6.22;1.92;;;15.60;52.90;;;;;;5034082;28;20037;-51
2023/04/13 11:27:19;;;;;;;5.50;1.90;;;15.70;52.70;;;;;;5035815;28;20103;-48
2023/04/13 11:29:55;;;;;;;4.65;1.52;;;15.70;52.40;;;;;;5025687;28;20111;-52
2023/04/13 11:32:22;;;;;;;5.40;1.48;;;15.70;52.70;;;;;;5027561;28;20053;-46
2023/04/13 11:34:49;;;;;;;5.22;1.85;;;15.80;52.40;;;;;;5022285;28;20041;-49
2023/04/13 11:37:16;;;;;;;5.20;1.88;;;15.80;52.20;;;;;;5032918;28;20041;-49
2023/04/13 11:39:43;;;;;;;5.20;1.60;;;15.90;52.60;;;;;;5041404;28;20112;-50
2023/04/13 11:42:13;;;;;;;7.70;2.00;;;16.00;53.10;;;;;;5040558;28;20716;-47
2023/04/13 11:44:44;;;;;;;9.80;1.98;;;16.10;51.80;;;;;;5030287;28;20070;-48
2023/04/13 11:47:14;;;;;;;7.38;2.33;;;16.10;51.70;;;;;;5045094;28;20041;-51
2023/04/13 11:49:46;;;;;;;7.28;1.90;;;16.20;51.30;;;;;;5044701;28;20052;-52
2023/04/13 11:52:14;;;;;;;5.90;1.10;;;16.20;51.20;;;;;;5037321;28;20040;-52
2023/04/13 11:54:42;;;;;;;8.73;3.50;;;16.30;50.80;;;;;;5033046;28;20068;-49
2023/04/13 11:57:08;;;;;;;5.20;1.45;;;16.20;50.30;;;;;;5032862;28;20041;-46
2023/04/13 11:59:37;;;;;;;4.47;1.70;;;16.20;50.30;;;;;;5032483;28;20034;-50
2023/04/13 12:02:05;;;;;;;7.47;1.77;;;16.10;50.50;;;;;;5024050;28;20046;-50
2023/04/13 12:04:47;;;;;;;5.78;1.48;;;16.00;50.50;;;;;;5038696;28;20143;-48
2023/04/13 12:07:14;;;;;;;6.75;1.88;;;15.90;51.10;;;;;;5041634;28;20056;-50
2023/04/13 12:09:43;;;;;;;4.75;1.73;;;15.90;51.10;;;;;;5041766;28;20064;-48
2023/04/13 12:12:24;;;;;;;4.28;1.45;;;15.80;51.70;;;;;;5032342;28;20053;-51
2023/04/13 12:14:55;;;;;;;4.82;1.52;;;15.80;51.90;;;;;;5028129;28;20043;-51
2023/04/13 12:17:41;;;;;;;3.60;1.17;;;15.80;51.50;;;;;;5025308;28;20582;-46
2023/04/13 12:20:17;;;;;;;5.20;1.80;;;15.90;51.40;;;;;;5029240;28;20103;-51
2023/04/13 12:22:46;;;;;;;5.90;1.55;;;16.00;51.40;;;;;;5043516;28;20476;-48
2023/04/13 12:25:32;;;;;;;4.13;1.50;;;16.10;50.80;;;;;;5040246;28;20041;-50
2023/04/13 12:28:02;;;;;;;6.72;1.85;;;16.20;50.40;;;;;;5040207;28;20060;-49
2023/04/13 12:30:29;;;;;;;2.63;1.23;;;16.30;50.20;;;;;;5043308;28;20064;-49
2023/04/13 12:32:55;;;;;;;6.95;1.75;;;16.40;49.80;;;;;;5031321;28;20537;-48
2023/04/13 12:35:22;;;;;;;6.45;1.77;;;16.50;50.20;;;;;;5041204;28;20064;-51
2023/04/13 12:37:49;;;;;;;4.18;1.50;;;16.60;49.80;;;;;;5043862;28;20055;-48
2023/04/13 12:40:17;;;;;;;4.32;1.38;;;16.80;49.70;;;;;;5033980;28;20044;-53
2023/04/13 12:42:47;;;;;;;3.85;1.50;;;16.80;49.10;;;;;;5030092;28;20041;-51
2023/04/13 12:45:15;;;;;;;7.15;1.95;;;16.90;48.60;;;;;;5031765;28;20490;-50
2023/04/13 12:47:44;;;;;;;5.10;1.55;;;16.90;48.20;;;;;;5036709;28;20128;-52
2023/04/13 12:50:11;;;;;;;6.72;1.70;;;16.90;47.90;;;;;;5042674;28;20049;-52
2023/04/13 12:52:41;;;;;;;12.20;2.35;;;16.90;48.20;;;;;;5027954;28;20042;-49
2023/04/13 12:55:10;;;;;;;3.75;1.20;;;16.90;48.30;;;;;;5028813;28;20044;-50
2023/04/13 12:57:38;;;;;;;5.05;1.42;;;16.90;47.90;;;;;;5014384;28;20041;-51
2023/04/13 13:00:09;;;;;;;5.45;1.60;;;16.90;47.70;;;;;;5028542;28;20041;-49
2023/04/13 13:02:36;;;;;;;5.35;1.73;;;17.00;48.30;;;;;;5024716;28;20532;-52
2023/04/13 13:05:04;;;;;;;6.13;1.73;;;17.00;47.60;;;;;;5029205;28;20446;-51
2023/04/13 13:07:31;;;;;;;5.40;1.42;;;17.10;47.90;;;;;;5038230;28;20041;-50